sensor_id;sensor_type;location;lat;lon;timestamp;P1;durP1;ratioP1;P2;durP2;ratioP2
21233;SDS011;10774;42.178;26.578;2024-01-27T00:00:24;17.20;;;10.82;;
21233;SDS011;10774;42.178;26.578;2024-01-27T00:02:49;13.18;;;8.55;;
21233;SDS011;10774;42.178;26.578;2024-01-27T00:05:14;13.85;;;8.27;;
21233;SDS011;10774;42.178;26.578;2024-01-27T00:07:40;18.10;;;10.77;;
21233;SDS011;10774;42.178;26.578;2024-01-27T00:10:05;28.55;;;14.70;;
21233;SDS011;10774;42.178;26.578;2024-01-27T00:12:31;19.88;;;10.05;;
21233;SDS011;10774;42.178;26.578;2024-01-27T00:14:57;23.33;;;11.77;;
21233;SDS011;10774;42.178;26.578;2024-01-27T00:17:22;23.45;;;11.52;;
21233;SDS011;10774;42.178;26.578;2024-01-27T00:19:50;16.65;;;9.52;;
21233;SDS011;10774;42.178;26.578;2024-01-27T00:22:16;17.73;;;8.27;;
21233;SDS011;10774;42.178;26.578;2024-01-27T00:24:42;16.38;;;8.50;;
21233;SDS011;10774;42.178;26.578;2024-01-27T00:27:08;12.77;;;7.82;;
21233;SDS011;10774;42.178;26.578;2024-01-27T00:29:33;13.82;;;8.00;;
21233;SDS011;10774;42.178;26.578;2024-01-27T00:31:59;14.02;;;7.28;;
21233;SDS011;10774;42.178;26.578;2024-01-27T00:34:24;13.65;;;7.90;;
21233;SDS011;10774;42.178;26.578;2024-01-27T00:36:50;14.55;;;7.95;;
21233;SDS011;10774;42.178;26.578;2024-01-27T00:39:16;15.52;;;9.07;;
21233;SDS011;10774;42.178;26.578;2024-01-27T00:41:45;12.20;;;6.57;;
21233;SDS011;10774;42.178;26.578;2024-01-27T00:44:10;8.25;;;4.75;;
21233;SDS011;10774;42.178;26.578;2024-01-27T00:46:36;6.82;;;4.78;;
21233;SDS011;10774;42.178;26.578;2024-01-27T00:49:02;6.00;;;3.92;;
21233;SDS011;10774;42.178;26.578;2024-01-27T00:51:28;26.23;;;12.70;;
21233;SDS011;10774;42.178;26.578;2024-01-27T00:53:53;56.47;;;22.20;;
21233;SDS011;10774;42.178;26.578;2024-01-27T00:56:19;63.78;;;24.00;;
21233;SDS011;10774;42.178;26.578;2024-01-27T00:58:44;20.65;;;8.80;;
21233;SDS011;10774;42.178;26.578;2024-01-27T01:04:08;12.73;;;7.53;;
21233;SDS011;10774;42.178;26.578;2024-01-27T01:06:33;8.95;;;5.28;;
21233;SDS011;10774;42.178;26.578;2024-01-27T01:08:58;7.05;;;4.50;;
21233;SDS011;10774;42.178;26.578;2024-01-27T01:11:24;4.85;;;3.58;;
21233;SDS011;10774;42.178;26.578;2024-01-27T01:13:49;7.28;;;3.80;;
21233;SDS011;10774;42.178;26.578;2024-01-27T01:16:15;6.75;;;4.28;;
21233;SDS011;10774;42.178;26.578;2024-01-27T01:18:40;11.23;;;4.43;;
21233;SDS011;10774;42.178;26.578;2024-01-27T01:21:06;5.28;;;3.85;;
21233;SDS011;10774;42.178;26.578;2024-01-27T01:23:31;5.68;;;3.88;;
21233;SDS011;10774;42.178;26.578;2024-01-27T01:25:57;5.28;;;3.55;;
21233;SDS011;10774;42.178;26.578;2024-01-27T01:28:23;8.43;;;5.30;;
21233;SDS011;10774;42.178;26.578;2024-01-27T01:30:48;7.85;;;5.70;;
21233;SDS011;10774;42.178;26.578;2024-01-27T01:33:14;7.85;;;5.10;;
21233;SDS011;10774;42.178;26.578;2024-01-27T01:35:40;7.20;;;4.80;;
21233;SDS011;10774;42.178;26.578;2024-01-27T01:38:05;8.60;;;5.63;;
21233;SDS011;10774;42.178;26.578;2024-01-27T01:40:31;7.30;;;5.43;;
21233;SDS011;10774;42.178;26.578;2024-01-27T01:42:56;11.48;;;6.15;;
21233;SDS011;10774;42.178;26.578;2024-01-27T01:45:23;7.47;;;4.80;;
21233;SDS011;10774;42.178;26.578;2024-01-27T01:47:49;9.50;;;4.80;;
21233;SDS011;10774;42.178;26.578;2024-01-27T01:50:14;9.05;;;5.00;;
21233;SDS011;10774;42.178;26.578;2024-01-27T01:52:40;8.20;;;5.00;;
21233;SDS011;10774;42.178;26.578;2024-01-27T01:55:05;6.60;;;4.22;;
21233;SDS011;10774;42.178;26.578;2024-01-27T01:57:32;7.38;;;4.15;;
21233;SDS011;10774;42.178;26.578;2024-01-27T01:59:58;6.97;;;4.07;;
21233;SDS011;10774;42.178;26.578;2024-01-27T02:02:24;6.60;;;4.18;;
21233;SDS011;10774;42.178;26.578;2024-01-27T02:04:49;6.57;;;3.50;;
21233;SDS011;10774;42.178;26.578;2024-01-27T02:07:14;6.63;;;4.00;;
21233;SDS011;10774;42.178;26.578;2024-01-27T02:09:40;6.70;;;4.55;;
21233;SDS011;10774;42.178;26.578;2024-01-27T02:12:06;8.10;;;4.78;;
21233;SDS011;10774;42.178;26.578;2024-01-27T02:14:31;8.60;;;5.32;;
21233;SDS011;10774;42.178;26.578;2024-01-27T02:16:57;8.48;;;5.70;;
21233;SDS011;10774;42.178;26.578;2024-01-27T02:19:23;5.95;;;4.90;;
21233;SDS011;10774;42.178;26.578;2024-01-27T02:21:49;8.38;;;5.60;;
21233;SDS011;10774;42.178;26.578;2024-01-27T02:24:15;6.65;;;4.90;;
21233;SDS011;10774;42.178;26.578;2024-01-27T02:30:02;5.35;;;3.95;;
21233;SDS011;10774;42.178;26.578;2024-01-27T02:32:27;6.28;;;3.85;;
21233;SDS011;10774;42.178;26.578;2024-01-27T02:34:53;7.38;;;3.70;;
21233;SDS011;10774;42.178;26.578;2024-01-27T02:37:18;5.47;;;3.33;;
21233;SDS011;10774;42.178;26.578;2024-01-27T02:39:44;7.78;;;4.30;;
21233;SDS011;10774;42.178;26.578;2024-01-27T02:42:09;7.55;;;4.28;;
21233;SDS011;10774;42.178;26.578;2024-01-27T02:44:35;10.20;;;6.90;;
21233;SDS011;10774;42.178;26.578;2024-01-27T02:47:00;11.18;;;6.70;;
21233;SDS011;10774;42.178;26.578;2024-01-27T02:49:26;7.63;;;4.80;;
21233;SDS011;10774;42.178;26.578;2024-01-27T02:51:51;7.03;;;4.97;;
21233;SDS011;10774;42.178;26.578;2024-01-27T02:54:17;7.63;;;4.53;;
21233;SDS011;10774;42.178;26.578;2024-01-27T02:56:42;8.77;;;5.13;;
21233;SDS011;10774;42.178;26.578;2024-01-27T02:59:07;12.15;;;8.30;;
21233;SDS011;10774;42.178;26.578;2024-01-27T03:01:33;27.27;;;18.30;;
21233;SDS011;10774;42.178;26.578;2024-01-27T03:03:58;51.03;;;35.40;;
21233;SDS011;10774;42.178;26.578;2024-01-27T03:06:24;57.97;;;39.58;;
21233;SDS011;10774;42.178;26.578;2024-01-27T03:08:49;67.43;;;42.22;;
21233;SDS011;10774;42.178;26.578;2024-01-27T03:11:14;74.70;;;41.17;;
21233;SDS011;10774;42.178;26.578;2024-01-27T03:13:40;150.30;;;84.38;;
21233;SDS011;10774;42.178;26.578;2024-01-27T03:16:10;31.65;;;19.90;;
21233;SDS011;10774;42.178;26.578;2024-01-27T03:18:36;15.73;;;10.63;;
21233;SDS011;10774;42.178;26.578;2024-01-27T03:21:02;48.50;;;25.98;;
21233;SDS011;10774;42.178;26.578;2024-01-27T03:23:28;16.02;;;9.35;;
21233;SDS011;10774;42.178;26.578;2024-01-27T03:25:53;10.05;;;5.65;;
21233;SDS011;10774;42.178;26.578;2024-01-27T03:28:19;74.35;;;37.80;;
21233;SDS011;10774;42.178;26.578;2024-01-27T03:30:45;143.60;;;79.60;;
21233;SDS011;10774;42.178;26.578;2024-01-27T03:33:10;99.90;;;53.20;;
21233;SDS011;10774;42.178;26.578;2024-01-27T03:35:37;66.40;;;37.42;;
21233;SDS011;10774;42.178;26.578;2024-01-27T03:38:04;64.20;;;35.58;;
21233;SDS011;10774;42.178;26.578;2024-01-27T03:40:30;217.15;;;84.68;;
21233;SDS011;10774;42.178;26.578;2024-01-27T03:42:56;178.77;;;70.53;;
21233;SDS011;10774;42.178;26.578;2024-01-27T03:45:21;98.25;;;40.17;;
21233;SDS011;10774;42.178;26.578;2024-01-27T03:47:46;53.17;;;20.15;;
21233;SDS011;10774;42.178;26.578;2024-01-27T03:50:12;318.42;;;97.55;;
21233;SDS011;10774;42.178;26.578;2024-01-27T03:52:37;171.75;;;86.05;;
21233;SDS011;10774;42.178;26.578;2024-01-27T03:55:03;33.83;;;20.42;;
21233;SDS011;10774;42.178;26.578;2024-01-27T03:57:30;12.20;;;8.40;;
21233;SDS011;10774;42.178;26.578;2024-01-27T03:59:55;14.60;;;9.30;;
21233;SDS011;10774;42.178;26.578;2024-01-27T04:02:21;10.00;;;7.03;;
21233;SDS011;10774;42.178;26.578;2024-01-27T04:04:46;9.20;;;6.15;;
21233;SDS011;10774;42.178;26.578;2024-01-27T04:07:11;11.10;;;7.55;;
21233;SDS011;10774;42.178;26.578;2024-01-27T04:09:37;12.82;;;8.35;;
21233;SDS011;10774;42.178;26.578;2024-01-27T04:12:02;15.98;;;11.02;;
21233;SDS011;10774;42.178;26.578;2024-01-27T04:14:28;26.25;;;16.33;;
21233;SDS011;10774;42.178;26.578;2024-01-27T04:16:53;21.05;;;13.68;;
21233;SDS011;10774;42.178;26.578;2024-01-27T04:19:18;21.92;;;12.98;;
21233;SDS011;10774;42.178;26.578;2024-01-27T04:21:44;10.52;;;6.28;;
21233;SDS011;10774;42.178;26.578;2024-01-27T04:24:10;12.82;;;8.90;;
21233;SDS011;10774;42.178;26.578;2024-01-27T04:26:35;51.47;;;20.85;;
21233;SDS011;10774;42.178;26.578;2024-01-27T04:29:01;125.65;;;46.88;;
21233;SDS011;10774;42.178;26.578;2024-01-27T04:31:26;63.72;;;27.45;;
21233;SDS011;10774;42.178;26.578;2024-01-27T04:33:51;41.15;;;23.17;;
21233;SDS011;10774;42.178;26.578;2024-01-27T04:36:29;19.38;;;12.57;;
21233;SDS011;10774;42.178;26.578;2024-01-27T04:38:54;14.45;;;11.70;;
21233;SDS011;10774;42.178;26.578;2024-01-27T04:41:20;21.13;;;16.42;;
21233;SDS011;10774;42.178;26.578;2024-01-27T04:43:46;8.85;;;6.65;;
21233;SDS011;10774;42.178;26.578;2024-01-27T04:46:11;7.35;;;4.82;;
21233;SDS011;10774;42.178;26.578;2024-01-27T04:48:36;6.03;;;5.15;;
21233;SDS011;10774;42.178;26.578;2024-01-27T04:51:02;6.00;;;4.40;;
21233;SDS011;10774;42.178;26.578;2024-01-27T04:53:27;5.50;;;3.72;;
21233;SDS011;10774;42.178;26.578;2024-01-27T04:55:53;7.25;;;4.53;;
21233;SDS011;10774;42.178;26.578;2024-01-27T04:58:18;9.23;;;4.97;;
21233;SDS011;10774;42.178;26.578;2024-01-27T05:00:44;7.93;;;5.68;;
21233;SDS011;10774;42.178;26.578;2024-01-27T05:03:09;12.15;;;7.00;;
21233;SDS011;10774;42.178;26.578;2024-01-27T05:05:40;8.93;;;6.05;;
21233;SDS011;10774;42.178;26.578;2024-01-27T05:08:06;9.93;;;5.95;;
21233;SDS011;10774;42.178;26.578;2024-01-27T05:10:31;10.75;;;6.07;;
21233;SDS011;10774;42.178;26.578;2024-01-27T05:12:57;6.88;;;5.13;;
21233;SDS011;10774;42.178;26.578;2024-01-27T05:15:22;8.98;;;4.72;;
21233;SDS011;10774;42.178;26.578;2024-01-27T05:17:48;8.15;;;4.00;;
21233;SDS011;10774;42.178;26.578;2024-01-27T05:20:13;7.72;;;3.88;;
21233;SDS011;10774;42.178;26.578;2024-01-27T05:22:39;5.80;;;3.70;;
21233;SDS011;10774;42.178;26.578;2024-01-27T05:25:04;5.50;;;3.70;;
21233;SDS011;10774;42.178;26.578;2024-01-27T05:27:30;5.93;;;4.00;;
21233;SDS011;10774;42.178;26.578;2024-01-27T05:29:55;10.38;;;5.20;;
21233;SDS011;10774;42.178;26.578;2024-01-27T05:32:21;6.72;;;4.78;;
21233;SDS011;10774;42.178;26.578;2024-01-27T05:34:46;10.02;;;6.43;;
21233;SDS011;10774;42.178;26.578;2024-01-27T05:37:11;8.32;;;5.75;;
21233;SDS011;10774;42.178;26.578;2024-01-27T05:39:38;8.40;;;6.75;;
21233;SDS011;10774;42.178;26.578;2024-01-27T05:42:04;11.13;;;7.90;;
21233;SDS011;10774;42.178;26.578;2024-01-27T05:44:29;10.55;;;8.00;;
21233;SDS011;10774;42.178;26.578;2024-01-27T05:46:54;10.45;;;8.32;;
21233;SDS011;10774;42.178;26.578;2024-01-27T05:49:21;55.05;;;34.20;;
21233;SDS011;10774;42.178;26.578;2024-01-27T05:51:46;47.65;;;31.50;;
21233;SDS011;10774;42.178;26.578;2024-01-27T05:54:13;32.28;;;21.40;;
21233;SDS011;10774;42.178;26.578;2024-01-27T05:56:41;22.60;;;14.02;;
21233;SDS011;10774;42.178;26.578;2024-01-27T05:59:07;16.00;;;11.40;;
21233;SDS011;10774;42.178;26.578;2024-01-27T06:01:32;11.63;;;9.65;;
21233;SDS011;10774;42.178;26.578;2024-01-27T06:03:58;15.35;;;10.65;;
21233;SDS011;10774;42.178;26.578;2024-01-27T06:06:23;13.43;;;9.00;;
21233;SDS011;10774;42.178;26.578;2024-01-27T06:08:49;12.77;;;9.30;;
21233;SDS011;10774;42.178;26.578;2024-01-27T06:11:22;21.15;;;15.77;;
21233;SDS011;10774;42.178;26.578;2024-01-27T06:13:48;26.30;;;20.30;;
21233;SDS011;10774;42.178;26.578;2024-01-27T06:16:15;16.40;;;12.13;;
21233;SDS011;10774;42.178;26.578;2024-01-27T06:18:40;7.90;;;6.55;;
21233;SDS011;10774;42.178;26.578;2024-01-27T06:21:05;5.97;;;5.07;;
21233;SDS011;10774;42.178;26.578;2024-01-27T06:23:31;10.27;;;4.97;;
21233;SDS011;10774;42.178;26.578;2024-01-27T06:25:57;6.25;;;4.25;;
21233;SDS011;10774;42.178;26.578;2024-01-27T06:28:22;8.60;;;3.78;;
21233;SDS011;10774;42.178;26.578;2024-01-27T06:30:48;6.07;;;3.67;;
21233;SDS011;10774;42.178;26.578;2024-01-27T06:35:43;7.25;;;4.22;;
21233;SDS011;10774;42.178;26.578;2024-01-27T06:38:08;61.25;;;30.98;;
21233;SDS011;10774;42.178;26.578;2024-01-27T06:40:33;61.60;;;34.33;;
21233;SDS011;10774;42.178;26.578;2024-01-27T06:42:59;51.88;;;31.85;;
21233;SDS011;10774;42.178;26.578;2024-01-27T06:45:24;54.35;;;32.67;;
21233;SDS011;10774;42.178;26.578;2024-01-27T06:47:50;45.40;;;30.67;;
21233;SDS011;10774;42.178;26.578;2024-01-27T06:50:15;46.75;;;26.80;;
21233;SDS011;10774;42.178;26.578;2024-01-27T06:52:41;63.28;;;34.97;;
21233;SDS011;10774;42.178;26.578;2024-01-27T06:55:06;45.70;;;24.70;;
21233;SDS011;10774;42.178;26.578;2024-01-27T06:57:32;29.52;;;19.13;;
21233;SDS011;10774;42.178;26.578;2024-01-27T06:59:58;25.08;;;17.73;;
21233;SDS011;10774;42.178;26.578;2024-01-27T07:02:23;31.40;;;20.95;;
21233;SDS011;10774;42.178;26.578;2024-01-27T07:04:49;33.22;;;21.00;;
21233;SDS011;10774;42.178;26.578;2024-01-27T07:07:15;21.90;;;16.05;;
21233;SDS011;10774;42.178;26.578;2024-01-27T07:09:41;16.55;;;11.32;;
21233;SDS011;10774;42.178;26.578;2024-01-27T07:12:07;28.05;;;15.68;;
21233;SDS011;10774;42.178;26.578;2024-01-27T07:14:35;20.95;;;12.77;;
21233;SDS011;10774;42.178;26.578;2024-01-27T07:17:01;16.73;;;11.30;;
21233;SDS011;10774;42.178;26.578;2024-01-27T07:19:28;20.42;;;12.95;;
21233;SDS011;10774;42.178;26.578;2024-01-27T07:21:54;31.63;;;19.30;;
21233;SDS011;10774;42.178;26.578;2024-01-27T07:24:19;29.80;;;18.65;;
21233;SDS011;10774;42.178;26.578;2024-01-27T07:26:45;24.98;;;16.25;;
21233;SDS011;10774;42.178;26.578;2024-01-27T07:29:10;21.30;;;14.15;;
21233;SDS011;10774;42.178;26.578;2024-01-27T07:31:35;20.70;;;14.38;;
21233;SDS011;10774;42.178;26.578;2024-01-27T07:34:01;21.27;;;14.02;;
21233;SDS011;10774;42.178;26.578;2024-01-27T07:36:27;37.60;;;22.50;;
21233;SDS011;10774;42.178;26.578;2024-01-27T07:38:57;52.75;;;31.42;;
21233;SDS011;10774;42.178;26.578;2024-01-27T07:41:22;34.33;;;21.02;;
21233;SDS011;10774;42.178;26.578;2024-01-27T07:43:53;38.78;;;23.88;;
21233;SDS011;10774;42.178;26.578;2024-01-27T07:46:20;48.95;;;30.75;;
21233;SDS011;10774;42.178;26.578;2024-01-27T07:48:47;59.90;;;35.90;;
21233;SDS011;10774;42.178;26.578;2024-01-27T07:51:14;95.05;;;52.80;;
21233;SDS011;10774;42.178;26.578;2024-01-27T07:53:40;144.80;;;70.63;;
21233;SDS011;10774;42.178;26.578;2024-01-27T07:56:05;41.95;;;25.35;;
21233;SDS011;10774;42.178;26.578;2024-01-27T07:58:32;36.13;;;23.88;;
21233;SDS011;10774;42.178;26.578;2024-01-27T08:00:58;37.47;;;23.80;;
21233;SDS011;10774;42.178;26.578;2024-01-27T08:03:24;22.35;;;15.77;;
21233;SDS011;10774;42.178;26.578;2024-01-27T08:05:50;20.10;;;14.38;;
21233;SDS011;10774;42.178;26.578;2024-01-27T08:08:16;18.63;;;13.27;;
21233;SDS011;10774;42.178;26.578;2024-01-27T08:10:41;31.13;;;19.27;;
21233;SDS011;10774;42.178;26.578;2024-01-27T08:13:07;26.23;;;18.20;;
21233;SDS011;10774;42.178;26.578;2024-01-27T08:15:33;20.75;;;12.82;;
21233;SDS011;10774;42.178;26.578;2024-01-27T08:17:58;21.65;;;14.65;;
21233;SDS011;10774;42.178;26.578;2024-01-27T08:20:24;26.25;;;16.65;;
21233;SDS011;10774;42.178;26.578;2024-01-27T08:22:50;23.63;;;12.30;;
21233;SDS011;10774;42.178;26.578;2024-01-27T08:25:16;20.35;;;12.68;;
21233;SDS011;10774;42.178;26.578;2024-01-27T08:27:42;35.10;;;19.92;;
21233;SDS011;10774;42.178;26.578;2024-01-27T08:30:08;33.60;;;19.70;;
21233;SDS011;10774;42.178;26.578;2024-01-27T08:32:35;49.25;;;21.98;;
21233;SDS011;10774;42.178;26.578;2024-01-27T08:35:00;46.15;;;27.13;;
21233;SDS011;10774;42.178;26.578;2024-01-27T08:37:26;34.72;;;23.30;;
21233;SDS011;10774;42.178;26.578;2024-01-27T08:39:51;44.13;;;24.05;;
21233;SDS011;10774;42.178;26.578;2024-01-27T08:42:17;27.48;;;16.88;;
21233;SDS011;10774;42.178;26.578;2024-01-27T08:44:42;27.70;;;17.88;;
21233;SDS011;10774;42.178;26.578;2024-01-27T08:47:07;23.65;;;15.80;;
21233;SDS011;10774;42.178;26.578;2024-01-27T08:49:33;26.30;;;16.60;;
21233;SDS011;10774;42.178;26.578;2024-01-27T08:51:58;33.28;;;17.45;;
21233;SDS011;10774;42.178;26.578;2024-01-27T08:54:24;24.40;;;16.60;;
21233;SDS011;10774;42.178;26.578;2024-01-27T08:56:49;20.98;;;14.82;;
21233;SDS011;10774;42.178;26.578;2024-01-27T08:59:15;34.45;;;23.10;;
21233;SDS011;10774;42.178;26.578;2024-01-27T09:01:41;26.48;;;14.80;;
21233;SDS011;10774;42.178;26.578;2024-01-27T09:04:07;23.73;;;14.32;;
21233;SDS011;10774;42.178;26.578;2024-01-27T09:06:34;18.48;;;9.60;;
21233;SDS011;10774;42.178;26.578;2024-01-27T09:09:00;14.82;;;9.15;;
21233;SDS011;10774;42.178;26.578;2024-01-27T09:11:25;19.95;;;10.23;;
21233;SDS011;10774;42.178;26.578;2024-01-27T09:13:54;26.95;;;14.50;;
21233;SDS011;10774;42.178;26.578;2024-01-27T09:16:20;25.45;;;12.57;;
21233;SDS011;10774;42.178;26.578;2024-01-27T09:18:46;25.63;;;12.57;;
21233;SDS011;10774;42.178;26.578;2024-01-27T09:21:12;45.42;;;21.33;;
21233;SDS011;10774;42.178;26.578;2024-01-27T09:23:37;18.77;;;11.07;;
21233;SDS011;10774;42.178;26.578;2024-01-27T09:26:03;15.07;;;10.48;;
21233;SDS011;10774;42.178;26.578;2024-01-27T09:28:29;15.00;;;8.82;;
21233;SDS011;10774;42.178;26.578;2024-01-27T09:31:02;16.80;;;11.40;;
21233;SDS011;10774;42.178;26.578;2024-01-27T09:33:27;20.67;;;11.25;;
21233;SDS011;10774;42.178;26.578;2024-01-27T09:35:53;14.98;;;8.57;;
21233;SDS011;10774;42.178;26.578;2024-01-27T09:38:18;15.55;;;9.85;;
21233;SDS011;10774;42.178;26.578;2024-01-27T09:40:44;15.68;;;7.75;;
21233;SDS011;10774;42.178;26.578;2024-01-27T09:43:11;15.10;;;6.90;;
21233;SDS011;10774;42.178;26.578;2024-01-27T09:45:39;14.52;;;6.82;;
21233;SDS011;10774;42.178;26.578;2024-01-27T09:48:05;22.88;;;11.05;;
21233;SDS011;10774;42.178;26.578;2024-01-27T09:50:36;35.13;;;18.00;;
21233;SDS011;10774;42.178;26.578;2024-01-27T09:53:02;17.42;;;9.27;;
21233;SDS011;10774;42.178;26.578;2024-01-27T09:55:33;22.95;;;10.73;;
21233;SDS011;10774;42.178;26.578;2024-01-27T09:57:58;45.58;;;22.98;;
21233;SDS011;10774;42.178;26.578;2024-01-27T10:00:26;34.50;;;15.45;;
21233;SDS011;10774;42.178;26.578;2024-01-27T10:02:52;34.92;;;16.80;;
21233;SDS011;10774;42.178;26.578;2024-01-27T10:05:19;12.90;;;6.75;;
21233;SDS011;10774;42.178;26.578;2024-01-27T10:07:45;20.60;;;8.93;;
21233;SDS011;10774;42.178;26.578;2024-01-27T10:10:11;23.83;;;15.88;;
21233;SDS011;10774;42.178;26.578;2024-01-27T10:12:40;18.83;;;12.80;;
21233;SDS011;10774;42.178;26.578;2024-01-27T10:15:21;26.90;;;15.77;;
21233;SDS011;10774;42.178;26.578;2024-01-27T10:17:47;33.13;;;16.27;;
21233;SDS011;10774;42.178;26.578;2024-01-27T10:20:13;28.48;;;17.15;;
21233;SDS011;10774;42.178;26.578;2024-01-27T10:22:41;39.70;;;23.45;;
21233;SDS011;10774;42.178;26.578;2024-01-27T10:25:07;35.22;;;21.35;;
21233;SDS011;10774;42.178;26.578;2024-01-27T10:27:34;42.88;;;23.85;;
21233;SDS011;10774;42.178;26.578;2024-01-27T10:30:00;34.55;;;19.23;;
21233;SDS011;10774;42.178;26.578;2024-01-27T10:32:26;20.13;;;12.63;;
21233;SDS011;10774;42.178;26.578;2024-01-27T10:35:01;52.83;;;33.92;;
21233;SDS011;10774;42.178;26.578;2024-01-27T10:37:28;35.30;;;23.60;;
21233;SDS011;10774;42.178;26.578;2024-01-27T10:40:06;45.15;;;27.83;;
21233;SDS011;10774;42.178;26.578;2024-01-27T10:42:36;34.40;;;21.17;;
21233;SDS011;10774;42.178;26.578;2024-01-27T10:45:02;32.42;;;21.73;;
21233;SDS011;10774;42.178;26.578;2024-01-27T10:47:30;33.92;;;21.50;;
21233;SDS011;10774;42.178;26.578;2024-01-27T10:49:57;100.13;;;53.92;;
21233;SDS011;10774;42.178;26.578;2024-01-27T10:52:41;45.28;;;27.88;;
21233;SDS011;10774;42.178;26.578;2024-01-27T10:55:10;32.60;;;22.45;;
21233;SDS011;10774;42.178;26.578;2024-01-27T10:57:38;36.92;;;23.83;;
21233;SDS011;10774;42.178;26.578;2024-01-27T11:00:05;41.70;;;26.67;;
21233;SDS011;10774;42.178;26.578;2024-01-27T11:02:33;35.10;;;22.25;;
21233;SDS011;10774;42.178;26.578;2024-01-27T11:05:01;41.55;;;24.98;;
21233;SDS011;10774;42.178;26.578;2024-01-27T11:07:28;42.35;;;24.63;;
21233;SDS011;10774;42.178;26.578;2024-01-27T11:09:57;40.08;;;24.85;;
21233;SDS011;10774;42.178;26.578;2024-01-27T11:12:22;16.77;;;9.55;;
21233;SDS011;10774;42.178;26.578;2024-01-27T11:14:49;19.80;;;11.75;;
21233;SDS011;10774;42.178;26.578;2024-01-27T11:17:16;18.80;;;10.73;;
21233;SDS011;10774;42.178;26.578;2024-01-27T11:23:20;30.95;;;17.00;;
21233;SDS011;10774;42.178;26.578;2024-01-27T11:26:03;27.45;;;17.55;;
21233;SDS011;10774;42.178;26.578;2024-01-27T11:28:30;20.95;;;13.55;;
21233;SDS011;10774;42.178;26.578;2024-01-27T11:30:55;23.27;;;15.60;;
21233;SDS011;10774;42.178;26.578;2024-01-27T11:33:24;27.70;;;18.80;;
21233;SDS011;10774;42.178;26.578;2024-01-27T11:38:58;22.35;;;17.25;;
21233;SDS011;10774;42.178;26.578;2024-01-27T11:41:27;22.17;;;14.63;;
21233;SDS011;10774;42.178;26.578;2024-01-27T11:43:54;16.15;;;10.90;;
21233;SDS011;10774;42.178;26.578;2024-01-27T11:46:20;32.42;;;19.05;;
21233;SDS011;10774;42.178;26.578;2024-01-27T11:48:45;26.23;;;15.52;;
21233;SDS011;10774;42.178;26.578;2024-01-27T11:51:11;24.08;;;14.30;;
21233;SDS011;10774;42.178;26.578;2024-01-27T11:53:38;30.15;;;18.27;;
21233;SDS011;10774;42.178;26.578;2024-01-27T11:56:09;36.25;;;21.15;;
21233;SDS011;10774;42.178;26.578;2024-01-27T11:58:38;26.02;;;16.05;;
21233;SDS011;10774;42.178;26.578;2024-01-27T12:01:12;40.05;;;23.02;;
21233;SDS011;10774;42.178;26.578;2024-01-27T12:03:37;48.58;;;21.40;;
21233;SDS011;10774;42.178;26.578;2024-01-27T12:06:03;35.75;;;18.42;;
21233;SDS011;10774;42.178;26.578;2024-01-27T12:08:28;27.45;;;21.02;;
21233;SDS011;10774;42.178;26.578;2024-01-27T12:10:54;28.25;;;20.77;;
21233;SDS011;10774;42.178;26.578;2024-01-27T12:13:19;20.52;;;12.93;;
21233;SDS011;10774;42.178;26.578;2024-01-27T12:15:45;22.17;;;12.82;;
21233;SDS011;10774;42.178;26.578;2024-01-27T12:18:11;24.35;;;13.05;;
21233;SDS011;10774;42.178;26.578;2024-01-27T12:20:37;31.15;;;16.70;;
21233;SDS011;10774;42.178;26.578;2024-01-27T12:23:03;26.65;;;15.63;;
21233;SDS011;10774;42.178;26.578;2024-01-27T12:25:30;21.75;;;13.93;;
21233;SDS011;10774;42.178;26.578;2024-01-27T12:27:55;31.20;;;23.20;;
21233;SDS011;10774;42.178;26.578;2024-01-27T12:30:21;27.10;;;18.17;;
21233;SDS011;10774;42.178;26.578;2024-01-27T12:32:47;30.73;;;17.17;;
21233;SDS011;10774;42.178;26.578;2024-01-27T12:35:12;296.50;;;86.80;;
21233;SDS011;10774;42.178;26.578;2024-01-27T12:37:38;124.13;;;54.63;;
21233;SDS011;10774;42.178;26.578;2024-01-27T12:40:17;201.52;;;109.18;;
21233;SDS011;10774;42.178;26.578;2024-01-27T12:42:43;54.08;;;31.80;;
21233;SDS011;10774;42.178;26.578;2024-01-27T12:45:09;47.10;;;31.30;;
21233;SDS011;10774;42.178;26.578;2024-01-27T12:47:34;38.42;;;24.52;;
21233;SDS011;10774;42.178;26.578;2024-01-27T12:50:00;43.40;;;26.85;;
21233;SDS011;10774;42.178;26.578;2024-01-27T12:52:25;61.67;;;37.53;;
21233;SDS011;10774;42.178;26.578;2024-01-27T12:54:51;230.27;;;114.43;;
21233;SDS011;10774;42.178;26.578;2024-01-27T12:57:16;326.23;;;161.95;;
21233;SDS011;10774;42.178;26.578;2024-01-27T12:59:43;141.05;;;75.93;;
21233;SDS011;10774;42.178;26.578;2024-01-27T13:02:08;97.90;;;54.40;;
21233;SDS011;10774;42.178;26.578;2024-01-27T13:04:34;76.03;;;44.20;;
21233;SDS011;10774;42.178;26.578;2024-01-27T13:06:59;59.42;;;33.80;;
21233;SDS011;10774;42.178;26.578;2024-01-27T13:09:25;60.63;;;35.90;;
21233;SDS011;10774;42.178;26.578;2024-01-27T13:11:50;54.67;;;35.05;;
21233;SDS011;10774;42.178;26.578;2024-01-27T13:14:16;53.22;;;31.85;;
21233;SDS011;10774;42.178;26.578;2024-01-27T13:16:43;57.50;;;35.75;;
21233;SDS011;10774;42.178;26.578;2024-01-27T13:19:09;42.80;;;25.90;;
21233;SDS011;10774;42.178;26.578;2024-01-27T13:21:34;28.35;;;17.83;;
21233;SDS011;10774;42.178;26.578;2024-01-27T13:24:00;49.58;;;28.17;;
21233;SDS011;10774;42.178;26.578;2024-01-27T13:26:25;41.47;;;25.73;;
21233;SDS011;10774;42.178;26.578;2024-01-27T13:28:51;48.20;;;26.48;;
21233;SDS011;10774;42.178;26.578;2024-01-27T13:31:16;36.85;;;23.45;;
21233;SDS011;10774;42.178;26.578;2024-01-27T13:33:43;27.90;;;15.85;;
21233;SDS011;10774;42.178;26.578;2024-01-27T13:36:08;30.30;;;16.63;;
21233;SDS011;10774;42.178;26.578;2024-01-27T13:38:34;23.40;;;14.23;;
21233;SDS011;10774;42.178;26.578;2024-01-27T13:41:00;18.33;;;11.55;;
21233;SDS011;10774;42.178;26.578;2024-01-27T13:43:29;26.17;;;14.55;;
21233;SDS011;10774;42.178;26.578;2024-01-27T13:45:57;16.75;;;11.07;;
21233;SDS011;10774;42.178;26.578;2024-01-27T13:48:23;24.10;;;15.07;;
21233;SDS011;10774;42.178;26.578;2024-01-27T13:50:48;14.10;;;9.40;;
21233;SDS011;10774;42.178;26.578;2024-01-27T13:53:14;23.17;;;14.43;;
21233;SDS011;10774;42.178;26.578;2024-01-27T13:55:39;29.73;;;19.35;;
21233;SDS011;10774;42.178;26.578;2024-01-27T13:58:05;40.05;;;25.50;;
21233;SDS011;10774;42.178;26.578;2024-01-27T14:00:34;35.63;;;23.73;;
21233;SDS011;10774;42.178;26.578;2024-01-27T14:03:00;53.53;;;33.13;;
21233;SDS011;10774;42.178;26.578;2024-01-27T14:05:32;29.58;;;19.00;;
21233;SDS011;10774;42.178;26.578;2024-01-27T14:07:57;30.65;;;18.92;;
21233;SDS011;10774;42.178;26.578;2024-01-27T14:10:23;26.48;;;17.38;;
21233;SDS011;10774;42.178;26.578;2024-01-27T14:12:51;26.45;;;16.38;;
21233;SDS011;10774;42.178;26.578;2024-01-27T14:15:17;20.85;;;13.30;;
21233;SDS011;10774;42.178;26.578;2024-01-27T14:17:42;25.65;;;16.38;;
21233;SDS011;10774;42.178;26.578;2024-01-27T14:20:08;29.92;;;19.70;;
21233;SDS011;10774;42.178;26.578;2024-01-27T14:22:37;30.35;;;20.58;;
21233;SDS011;10774;42.178;26.578;2024-01-27T14:25:07;41.47;;;25.73;;